createdAt,value
2022-09-27T00:01:19.145Z,15.30
2022-09-27T00:03:46.247Z,15.30
2022-09-27T00:06:22.398Z,15.40
2022-09-27T00:08:49.349Z,15.40
2022-09-27T00:11:37.120Z,15.40
2022-09-27T00:14:05.636Z,15.50
2022-09-27T00:16:35.760Z,15.50
2022-09-27T00:19:05.498Z,15.50
2022-09-27T00:21:32.773Z,15.50
2022-09-27T00:24:00.127Z,15.50
2022-09-27T00:26:27.669Z,15.60
2022-09-27T00:28:54.923Z,15.60
2022-09-27T00:31:29.521Z,15.60
2022-09-27T00:33:58.935Z,15.60
2022-09-27T00:36:26.691Z,15.60
2022-09-27T00:38:54.569Z,15.70
2022-09-27T00:41:27.999Z,15.70
2022-09-27T00:43:58.020Z,15.80
2022-09-27T00:46:40.885Z,15.80
2022-09-27T00:49:25.040Z,15.90
2022-09-27T00:51:56.919Z,15.90
2022-09-27T00:54:26.872Z,15.90
2022-09-27T00:56:54.523Z,15.90
2022-09-27T00:59:25.953Z,15.90
2022-09-27T01:01:53.547Z,15.90
2022-09-27T01:04:28.078Z,16.00
2022-09-27T01:06:55.077Z,15.90
2022-09-27T01:09:23.304Z,15.90
2022-09-27T01:12:37.596Z,15.90
2022-09-27T01:15:33.627Z,16.00
2022-09-27T01:18:06.944Z,16.00
2022-09-27T01:20:52.966Z,15.90
2022-09-27T01:23:31.604Z,15.90
2022-09-27T01:26:10.668Z,15.90
2022-09-27T01:29:13.898Z,15.90
2022-09-27T01:31:51.297Z,15.90
2022-09-27T01:34:32.425Z,15.90
2022-09-27T01:37:14.418Z,15.90
2022-09-27T01:40:17.000Z,15.90
2022-09-27T01:43:18.657Z,15.80
2022-09-27T01:46:15.490Z,15.80
2022-09-27T01:49:08.758Z,15.80
2022-09-27T01:51:49.715Z,15.80
2022-09-27T01:54:30.489Z,15.80
2022-09-27T01:57:35.293Z,15.80
2022-09-27T02:00:10.535Z,15.80
2022-09-27T02:03:05.271Z,15.80
2022-09-27T02:05:43.564Z,15.80
2022-09-27T02:08:43.937Z,15.80
2022-09-27T02:11:21.323Z,15.80
2022-09-27T02:14:13.738Z,15.80
2022-09-27T02:16:51.898Z,15.80
2022-09-27T02:19:42.941Z,15.70
2022-09-27T02:22:25.327Z,15.70
2022-09-27T02:25:01.456Z,15.70
2022-09-27T02:27:47.273Z,15.80
2022-09-27T02:30:15.898Z,15.80
2022-09-27T02:32:46.688Z,15.80
2022-09-27T02:35:23.336Z,15.80
2022-09-27T02:37:51.648Z,15.80
2022-09-27T02:40:20.191Z,15.80
2022-09-27T02:42:47.644Z,15.80
2022-09-27T02:45:17.723Z,15.80
2022-09-27T02:48:20.162Z,15.80
2022-09-27T02:51:17.304Z,15.80
2022-09-27T02:54:09.019Z,15.80
2022-09-27T02:57:10.860Z,15.80
2022-09-27T03:00:22.866Z,15.80
2022-09-27T03:03:07.767Z,15.70
2022-09-27T03:05:53.937Z,15.70
2022-09-27T03:08:21.699Z,15.80
2022-09-27T03:10:48.702Z,15.80
2022-09-27T03:13:16.528Z,15.80
2022-09-27T03:15:46.392Z,15.90
2022-09-27T03:18:19.385Z,15.90
2022-09-27T03:21:04.722Z,15.90
2022-09-27T03:23:32.264Z,15.80
2022-09-27T03:25:59.596Z,15.80
2022-09-27T03:28:29.651Z,15.80
2022-09-27T03:30:56.859Z,15.80
2022-09-27T03:33:50.042Z,15.90
2022-09-27T03:36:17.494Z,15.80
2022-09-27T03:38:44.465Z,15.70
2022-09-27T03:41:16.543Z,15.60
2022-09-27T03:43:44.002Z,15.50
2022-09-27T03:46:11.399Z,15.50
2022-09-27T03:48:38.591Z,15.50
2022-09-27T03:51:05.684Z,15.50
2022-09-27T03:53:32.761Z,15.50
2022-09-27T03:55:59.832Z,15.50
2022-09-27T03:58:27.054Z,15.60
2022-09-27T04:00:53.973Z,15.60
2022-09-27T04:03:21.033Z,15.50
2022-09-27T04:06:08.624Z,15.50
2022-09-27T04:08:39.515Z,15.40
2022-09-27T04:11:07.640Z,15.50
2022-09-27T04:13:36.325Z,15.50
2022-09-27T04:16:04.879Z,15.40
2022-09-27T04:18:32.116Z,15.40
2022-09-27T04:21:17.317Z,15.50
2022-09-27T04:23:50.356Z,15.50
2022-09-27T04:26:21.145Z,15.50
2022-09-27T04:29:09.830Z,15.50
2022-09-27T04:31:40.496Z,15.50
2022-09-27T04:34:46.070Z,15.50
2022-09-27T04:37:15.436Z,15.50
2022-09-27T04:39:49.336Z,15.60
2022-09-27T04:42:17.728Z,15.60
2022-09-27T04:44:45.128Z,15.60
2022-09-27T04:47:12.576Z,15.70
2022-09-27T04:49:40.960Z,15.70
2022-09-27T04:52:09.241Z,15.70
2022-09-27T04:54:36.549Z,15.70
2022-09-27T04:57:10.528Z,15.70
2022-09-27T04:59:38.167Z,15.70
2022-09-27T05:02:05.981Z,15.70
2022-09-27T05:04:59.545Z,15.70
2022-09-27T05:07:34.862Z,15.80
2022-09-27T05:10:07.426Z,15.80
2022-09-27T05:12:35.039Z,15.80
2022-09-27T05:15:03.347Z,15.80
2022-09-27T05:18:08.184Z,15.80
2022-09-27T05:20:56.884Z,15.80
2022-09-27T05:23:31.424Z,15.80
2022-09-27T05:25:58.993Z,15.80
2022-09-27T05:28:26.027Z,15.80
2022-09-27T05:30:53.051Z,15.80
2022-09-27T05:33:21.752Z,15.80
2022-09-27T05:35:56.239Z,15.80
2022-09-27T05:38:28.292Z,15.80
2022-09-27T05:40:57.628Z,15.80
2022-09-27T05:43:25.305Z,15.80
2022-09-27T05:45:53.520Z,15.80
2022-09-27T05:48:22.251Z,15.80
2022-09-27T05:50:55.874Z,15.70
2022-09-27T05:53:23.081Z,15.70
2022-09-27T05:55:50.268Z,15.70
2022-09-27T05:58:20.506Z,15.70
2022-09-27T06:00:53.755Z,15.80
2022-09-27T06:03:47.772Z,15.80
2022-09-27T06:06:14.928Z,15.90
2022-09-27T06:08:49.298Z,16.00
2022-09-27T06:11:19.004Z,16.10
2022-09-27T06:13:47.378Z,16.20
2022-09-27T06:16:14.465Z,16.20
2022-09-27T06:18:44.796Z,16.20
2022-09-27T06:21:13.216Z,16.20
2022-09-27T06:23:43.047Z,16.20
2022-09-27T06:26:20.283Z,16.20
2022-09-27T06:29:10.278Z,16.10
2022-09-27T06:31:42.793Z,16.10
2022-09-27T06:34:32.907Z,15.90
2022-09-27T06:36:59.867Z,15.80
2022-09-27T06:39:28.540Z,15.60
2022-09-27T06:42:24.566Z,15.50
2022-09-27T06:45:14.517Z,15.30
2022-09-27T06:48:17.498Z,15.30
2022-09-27T06:50:51.178Z,15.20
2022-09-27T06:53:19.636Z,15.30
2022-09-27T06:55:46.673Z,15.50
2022-09-27T06:58:32.192Z,15.80
2022-09-27T07:01:22.045Z,16.20
2022-09-27T07:04:11.426Z,17.80
2022-09-27T07:06:53.659Z,19.50
2022-09-27T07:09:23.336Z,19.80
2022-09-27T07:11:50.369Z,19.40
2022-09-27T07:14:17.608Z,18.90
2022-09-27T07:16:46.045Z,18.50
2022-09-27T07:19:14.458Z,18.30
2022-09-27T07:21:41.936Z,18.00
2022-09-27T07:24:08.965Z,17.90
2022-09-27T07:26:35.954Z,18.00
2022-09-27T07:29:05.464Z,18.30
2022-09-27T07:31:32.604Z,18.50
2022-09-27T07:33:59.570Z,19.30
2022-09-27T07:36:26.609Z,21.20
2022-09-27T07:38:53.940Z,23.40
2022-09-27T07:41:21.648Z,25.10
2022-09-27T07:43:48.612Z,25.50
2022-09-27T07:46:15.686Z,26.60
2022-09-27T07:49:03.007Z,27.80
2022-09-27T07:51:45.466Z,27.70
2022-09-27T07:54:48.065Z,26.90
2022-09-27T07:57:40.086Z,25.80
2022-09-27T08:00:12.861Z,25.10
2022-09-27T08:02:44.667Z,24.80
2022-09-27T08:05:13.260Z,24.50
2022-09-27T08:07:40.830Z,24.20
2022-09-27T08:10:09.347Z,23.80
2022-09-27T08:12:37.690Z,23.60
2022-09-27T08:15:05.408Z,24.10
2022-09-27T08:17:33.167Z,24.90
2022-09-27T08:20:22.890Z,24.80
2022-09-27T08:23:24.657Z,24.60
2022-09-27T08:26:05.057Z,24.30
2022-09-27T08:28:43.065Z,24.00
2022-09-27T08:31:19.516Z,23.50
2022-09-27T08:33:51.588Z,23.10
2022-09-27T08:36:20.399Z,22.70
2022-09-27T08:38:51.441Z,23.00
2022-09-27T08:41:49.338Z,23.20
2022-09-27T08:44:51.727Z,23.30
2022-09-27T08:47:44.771Z,23.30
2022-09-27T08:50:53.234Z,22.90
2022-09-27T08:53:53.667Z,22.40
2022-09-27T08:56:22.595Z,22.30
2022-09-27T08:58:57.849Z,22.60
2022-09-27T09:01:31.772Z,23.00
2022-09-27T09:04:42.869Z,23.30
2022-09-27T09:07:36.082Z,24.80
2022-09-27T09:10:36.617Z,25.80
2022-09-27T09:13:19.356Z,27.90
2022-09-27T09:16:11.254Z,30.30
2022-09-27T09:18:43.714Z,32.20
2022-09-27T09:21:37.444Z,32.60
2022-09-27T09:24:19.580Z,32.90
2022-09-27T09:27:04.578Z,33.80
2022-09-27T09:30:02.799Z,35.00
2022-09-27T09:32:49.287Z,35.80
2022-09-27T09:35:41.559Z,36.50
2022-09-27T09:38:23.402Z,36.80
2022-09-27T09:41:19.354Z,36.60
2022-09-27T09:43:56.321Z,35.60
2022-09-27T09:46:45.558Z,34.90
2022-09-27T09:49:35.931Z,33.70
2022-09-27T09:52:11.208Z,33.90
2022-09-27T09:54:47.263Z,34.10
2022-09-27T09:57:22.852Z,33.40
2022-09-27T09:59:58.457Z,33.80
2022-09-27T10:02:34.091Z,34.20
2022-09-27T10:05:19.276Z,34.40
2022-09-27T10:07:53.262Z,34.10
2022-09-27T10:10:21.720Z,34.20
2022-09-27T10:12:56.282Z,32.80
2022-09-27T10:15:30.774Z,32.80
2022-09-27T10:17:59.814Z,33.70
2022-09-27T10:20:39.871Z,33.80
2022-09-27T10:23:22.197Z,34.60
2022-09-27T10:26:21.660Z,34.00
2022-09-27T10:28:51.855Z,32.00
2022-09-27T10:31:24.679Z,30.60
2022-09-27T10:34:07.167Z,30.60
2022-09-27T10:36:41.031Z,31.30
2022-09-27T10:39:22.314Z,32.80
2022-09-27T10:41:49.321Z,33.60
2022-09-27T10:44:38.152Z,34.20
2022-09-27T10:47:26.467Z,35.10
2022-09-27T10:50:08.089Z,34.80
2022-09-27T10:53:21.023Z,35.00
2022-09-27T10:55:58.285Z,35.80
2022-09-27T10:58:31.275Z,37.00
2022-09-27T11:01:01.416Z,37.90
2022-09-27T11:03:31.756Z,37.90
2022-09-27T11:05:59.779Z,37.40
2022-09-27T11:08:32.673Z,36.50
2022-09-27T11:11:35.176Z,35.60
2022-09-27T11:14:17.903Z,35.50
2022-09-27T11:17:29.555Z,34.70
2022-09-27T11:20:04.784Z,34.10
2022-09-27T11:23:08.868Z,33.80
2022-09-27T11:25:57.758Z,35.10
2022-09-27T11:28:29.119Z,36.10
2022-09-27T11:31:05.917Z,36.70
2022-09-27T11:33:52.905Z,37.40
2022-09-27T11:36:25.564Z,37.60
2022-09-27T11:39:23.705Z,37.20
2022-09-27T11:42:11.141Z,37.30
2022-09-27T11:45:32.020Z,35.90
2022-09-27T11:48:07.402Z,33.90
2022-09-27T11:51:03.649Z,31.80
2022-09-27T11:53:43.657Z,31.90
2022-09-27T11:56:19.801Z,32.50
2022-09-27T11:59:07.170Z,32.00
2022-09-27T12:01:51.014Z,30.90
2022-09-27T12:04:27.137Z,30.00
2022-09-27T12:07:15.765Z,29.90
2022-09-27T12:09:57.212Z,29.40
2022-09-27T12:12:46.816Z,28.50
2022-09-27T12:15:36.314Z,27.70
2022-09-27T12:18:32.340Z,27.20
2022-09-27T12:21:04.143Z,27.50
2022-09-27T12:23:49.046Z,27.20
2022-09-27T12:26:43.744Z,27.60
2022-09-27T12:29:20.594Z,29.20
2022-09-27T12:32:02.626Z,31.00
2022-09-27T12:34:50.732Z,32.60
2022-09-27T12:37:45.881Z,34.10
2022-09-27T12:40:31.491Z,35.10
2022-09-27T12:43:08.812Z,35.90
2022-09-27T12:46:34.947Z,36.00
2022-09-27T12:49:25.224Z,35.30
2022-09-27T12:52:08.195Z,34.60
2022-09-27T12:54:38.110Z,34.40
2022-09-27T12:57:33.293Z,34.40
2022-09-27T13:00:25.206Z,34.60
2022-09-27T13:03:33.671Z,34.80
2022-09-27T13:06:29.766Z,34.90
2022-09-27T13:09:04.636Z,34.50
2022-09-27T13:11:41.760Z,34.60
2022-09-27T13:14:21.456Z,34.80
2022-09-27T13:16:49.917Z,34.70
2022-09-27T13:19:42.858Z,34.70
2022-09-27T13:22:24.150Z,34.50
2022-09-27T13:25:24.080Z,34.40
2022-09-27T13:28:02.839Z,34.80
2022-09-27T13:30:37.396Z,35.10
2022-09-27T13:33:10.681Z,35.50
2022-09-27T13:36:30.595Z,35.60
2022-09-27T13:39:11.575Z,35.20
2022-09-27T13:42:47.475Z,34.80
2022-09-27T13:45:27.126Z,34.40
2022-09-27T13:47:56.895Z,34.50
2022-09-27T13:50:56.338Z,34.30
2022-09-27T13:53:38.998Z,34.20
2022-09-27T13:56:07.294Z,34.10
2022-09-27T13:58:54.804Z,34.00
2022-09-27T14:02:33.645Z,34.10
2022-09-27T14:05:02.153Z,34.30
2022-09-27T14:07:41.414Z,34.60
2022-09-27T14:10:16.317Z,34.90
2022-09-27T14:12:45.875Z,34.40
2022-09-27T14:15:21.271Z,33.60
2022-09-27T14:17:48.471Z,32.90
2022-09-27T14:20:41.857Z,32.10
2022-09-27T14:23:26.147Z,30.70
2022-09-27T14:25:55.135Z,29.30
2022-09-27T14:28:24.962Z,28.40
2022-09-27T14:31:18.050Z,28.20
2022-09-27T14:34:08.991Z,28.50
2022-09-27T14:36:57.486Z,28.80
2022-09-27T14:39:33.447Z,28.90
2022-09-27T14:42:16.810Z,28.80
2022-09-27T14:44:45.564Z,28.60
2022-09-27T14:47:19.979Z,28.50
2022-09-27T14:49:56.078Z,28.60
2022-09-27T14:52:31.383Z,28.90
2022-09-27T14:55:07.674Z,29.20
2022-09-27T14:57:37.159Z,29.40
2022-09-27T15:00:36.303Z,29.40
2022-09-27T15:03:09.246Z,29.20
2022-09-27T15:05:41.007Z,28.70
2022-09-27T15:08:11.898Z,28.00
2022-09-27T15:10:39.313Z,27.30
2022-09-27T15:13:06.921Z,26.70
2022-09-27T15:15:36.873Z,26.30
2022-09-27T15:18:24.521Z,25.80
2022-09-27T15:20:55.263Z,25.40
2022-09-27T15:23:37.199Z,25.00
2022-09-27T15:26:18.195Z,24.70
2022-09-27T15:28:48.260Z,24.40
2022-09-27T15:31:15.799Z,24.20
2022-09-27T15:33:52.056Z,24.20
2022-09-27T15:36:41.635Z,24.10
2022-09-27T15:39:10.320Z,24.10
2022-09-27T15:42:17.748Z,24.00
2022-09-27T15:44:46.173Z,24.00
2022-09-27T15:47:40.321Z,23.80
2022-09-27T15:50:16.132Z,23.80
2022-09-27T15:52:52.930Z,23.60
2022-09-27T15:55:25.328Z,23.50
2022-09-27T15:58:08.316Z,23.50
2022-09-27T16:00:35.947Z,23.40
2022-09-27T16:03:04.193Z,23.40
2022-09-27T16:05:33.279Z,23.30
2022-09-27T16:08:00.442Z,23.30
2022-09-27T16:10:42.937Z,23.30
2022-09-27T16:13:09.817Z,23.10
2022-09-27T16:15:37.415Z,22.90
2022-09-27T16:18:04.732Z,22.60
2022-09-27T16:20:32.004Z,22.40
2022-09-27T16:22:59.230Z,22.20
2022-09-27T16:25:26.150Z,22.00
2022-09-27T16:27:53.218Z,21.90
2022-09-27T16:30:20.788Z,21.70
2022-09-27T16:32:48.964Z,21.60
2022-09-27T16:35:17.712Z,21.40
2022-09-27T16:37:44.902Z,21.30
2022-09-27T16:40:13.304Z,21.10
2022-09-27T16:42:41.270Z,21.00
2022-09-27T16:45:11.189Z,20.90
2022-09-27T16:47:41.140Z,20.80
2022-09-27T16:50:28.721Z,20.60
2022-09-27T16:52:55.826Z,20.50
2022-09-27T16:55:22.894Z,20.30
2022-09-27T16:57:51.404Z,20.20
2022-09-27T17:00:18.651Z,20.10
2022-09-27T17:02:48.583Z,19.90
2022-09-27T17:05:16.711Z,19.80
2022-09-27T17:07:43.642Z,19.70
2022-09-27T17:10:10.621Z,19.60
2022-09-27T17:12:37.521Z,19.50
2022-09-27T17:15:04.949Z,19.30
2022-09-27T17:17:31.893Z,19.30
2022-09-27T17:19:58.809Z,19.10
2022-09-27T17:22:25.758Z,19.10
2022-09-27T17:24:52.737Z,19.00
2022-09-27T17:27:23.984Z,19.00
2022-09-27T17:29:52.802Z,18.90
2022-09-27T17:32:24.375Z,18.80
2022-09-27T17:34:52.424Z,18.70
2022-09-27T17:37:19.737Z,18.60
2022-09-27T17:39:46.668Z,18.60
2022-09-27T17:42:13.595Z,18.60
2022-09-27T17:44:40.580Z,18.50
2022-09-27T17:47:26.290Z,18.50
2022-09-27T17:50:11.855Z,18.50
2022-09-27T17:52:38.938Z,18.50
2022-09-27T17:55:06.131Z,18.40
2022-09-27T17:57:33.301Z,18.40
2022-09-27T18:00:00.579Z,18.40
2022-09-27T18:02:27.771Z,18.40
2022-09-27T18:04:54.814Z,18.30
2022-09-27T18:07:21.785Z,18.30
2022-09-27T18:09:50.279Z,18.20
2022-09-27T18:12:17.216Z,18.10
2022-09-27T18:14:45.025Z,18.10
2022-09-27T18:17:12.937Z,18.00
2022-09-27T18:19:40.292Z,17.90
2022-09-27T18:22:07.365Z,17.90
2022-09-27T18:24:34.471Z,17.80
2022-09-27T18:27:02.391Z,17.70
2022-09-27T18:29:29.325Z,17.70
2022-09-27T18:31:56.404Z,17.60
2022-09-27T18:34:24.401Z,17.60
2022-09-27T18:36:51.887Z,17.60
2022-09-27T18:39:19.759Z,17.60
2022-09-27T18:41:49.210Z,17.60
2022-09-27T18:44:17.691Z,17.50
2022-09-27T18:46:45.412Z,17.50
2022-09-27T18:49:13.997Z,17.50
2022-09-27T18:51:46.147Z,17.50
2022-09-27T18:54:18.233Z,17.40
2022-09-27T18:56:46.168Z,17.40
2022-09-27T18:59:13.397Z,17.40
2022-09-27T19:01:45.233Z,17.30
2022-09-27T19:04:14.906Z,17.30
2022-09-27T19:06:42.342Z,17.20
2022-09-27T19:09:11.437Z,17.20
2022-09-27T19:11:39.163Z,17.10
2022-09-27T19:14:06.406Z,17.10
2022-09-27T19:16:33.749Z,17.10
2022-09-27T19:19:00.805Z,17.10
2022-09-27T19:21:29.075Z,17.10
2022-09-27T19:23:56.594Z,17.00
2022-09-27T19:26:27.387Z,17.00
2022-09-27T19:28:55.202Z,17.00
2022-09-27T19:31:25.078Z,17.00
2022-09-27T19:33:59.041Z,17.00
2022-09-27T19:36:27.076Z,17.10
2022-09-27T19:38:54.114Z,17.10
2022-09-27T19:41:21.100Z,17.00
2022-09-27T19:43:52.408Z,17.00
2022-09-27T19:46:20.132Z,17.00
2022-09-27T19:48:49.177Z,16.90
2022-09-27T19:51:25.364Z,16.90
2022-09-27T19:53:53.568Z,16.90
2022-09-27T19:56:21.460Z,17.00
2022-09-27T19:58:48.677Z,17.00
2022-09-27T20:01:23.906Z,17.10
2022-09-27T20:03:53.355Z,17.10
2022-09-27T20:06:21.814Z,17.20
2022-09-27T20:08:49.404Z,17.20
2022-09-27T20:11:18.677Z,17.20
2022-09-27T20:13:45.801Z,17.30
2022-09-27T20:16:25.905Z,17.30
2022-09-27T20:18:55.594Z,17.30
2022-09-27T20:21:25.407Z,17.30
2022-09-27T20:23:54.794Z,17.20
2022-09-27T20:26:24.424Z,17.20
2022-09-27T20:28:53.188Z,17.20
2022-09-27T20:31:22.520Z,17.10
2022-09-27T20:33:50.925Z,17.10
2022-09-27T20:36:29.499Z,17.10
2022-09-27T20:39:03.167Z,17.10
2022-09-27T20:41:32.479Z,17.10
2022-09-27T20:44:03.415Z,17.10
2022-09-27T20:46:30.977Z,17.00
2022-09-27T20:49:00.283Z,17.00
2022-09-27T20:51:27.969Z,17.00
2022-09-27T20:53:55.248Z,17.00
2022-09-27T20:56:24.109Z,16.90
2022-09-27T20:58:53.624Z,16.90
2022-09-27T21:01:21.979Z,16.80
2022-09-27T21:03:54.076Z,16.80
2022-09-27T21:06:23.305Z,16.70
2022-09-27T21:08:51.339Z,16.70
2022-09-27T21:11:19.391Z,16.60
2022-09-27T21:13:47.456Z,16.60
2022-09-27T21:16:17.026Z,16.60
2022-09-27T21:18:44.590Z,16.50
2022-09-27T21:21:14.893Z,16.50
2022-09-27T21:23:44.880Z,16.50
2022-09-27T21:26:18.947Z,16.50
2022-09-27T21:28:54.108Z,16.40
2022-09-27T21:31:23.699Z,16.40
2022-09-27T21:33:54.067Z,16.30
2022-09-27T21:36:22.934Z,16.30
2022-09-27T21:38:50.103Z,16.20
2022-09-27T21:41:17.984Z,16.20
2022-09-27T21:43:46.735Z,16.20
2022-09-27T21:46:25.550Z,16.20
2022-09-27T21:48:56.141Z,16.20
2022-09-27T21:51:36.923Z,16.10
2022-09-27T21:54:07.016Z,16.10
2022-09-27T21:56:37.484Z,16.00
2022-09-27T21:59:06.177Z,16.00
2022-09-27T22:01:34.816Z,16.00
2022-09-27T22:04:03.978Z,15.90
2022-09-27T22:06:33.332Z,15.90
2022-09-27T22:09:01.650Z,15.90
2022-09-27T22:11:34.505Z,15.90
2022-09-27T22:14:01.884Z,15.90
2022-09-27T22:16:32.129Z,15.80
2022-09-27T22:19:00.201Z,15.80
2022-09-27T22:21:29.704Z,15.80
2022-09-27T22:24:05.147Z,15.70
2022-09-27T22:26:36.685Z,15.70
2022-09-27T22:29:03.990Z,15.70
2022-09-27T22:31:31.083Z,15.70
2022-09-27T22:34:04.009Z,15.70
2022-09-27T22:36:32.327Z,15.70
2022-09-27T22:38:59.651Z,15.60
2022-09-27T22:41:27.320Z,15.60
2022-09-27T22:43:54.284Z,15.60
2022-09-27T22:46:22.250Z,15.60
2022-09-27T22:48:49.874Z,15.60
2022-09-27T22:51:17.788Z,15.60
2022-09-27T22:53:44.985Z,15.60
2022-09-27T22:56:20.182Z,15.60
2022-09-27T22:58:49.168Z,15.60
2022-09-27T23:01:21.597Z,15.60
2022-09-27T23:03:50.140Z,15.60
2022-09-27T23:06:19.420Z,15.50
2022-09-27T23:08:47.917Z,15.50
2022-09-27T23:11:17.920Z,15.50
2022-09-27T23:13:45.666Z,15.40
2022-09-27T23:16:17.717Z,15.40
2022-09-27T23:18:44.965Z,15.40
2022-09-27T23:21:13.189Z,15.40
2022-09-27T23:23:43.659Z,15.50
2022-09-27T23:26:14.021Z,15.60
2022-09-27T23:28:41.368Z,15.60
2022-09-27T23:31:10.632Z,15.60
2022-09-27T23:33:39.208Z,15.60
2022-09-27T23:36:09.115Z,15.60
2022-09-27T23:38:37.319Z,15.70
2022-09-27T23:41:05.247Z,15.70
2022-09-27T23:43:32.537Z,15.80
2022-09-27T23:45:59.490Z,15.80
2022-09-27T23:48:27.861Z,15.90
2022-09-27T23:50:55.167Z,16.00
2022-09-27T23:53:22.549Z,16.00
2022-09-27T23:56:02.703Z,15.90
2022-09-27T23:58:36.992Z,16.00
